Earlysville, VA

4:15 AM EST on February 12, 2016 (GMT -0500)
Charlottesville-Albemarle | | Change Station
CLOSE
Current Station
Airport
Location: Charlottesville,
Elevation: 640 ft
Nearby Weather Stations

Elev 640 ft 38.14 °N, 78.46 °W | Updated 22 minutes ago

Clear
Clear
19 °F
Feels Like 19 °F
N
0
Wind Variable Wind from North

Today
High -- | Low -- °F
--% Chance of Precip.
Yesterday
High -- | Low -- °F
Precip. -- in
Pressure 30.30 in
Visibility 10.0 miles
Clouds Clear
Dew Point 6 °F
Humidity 57%
Rainfall 0.00 in
Snow Depth Not available.
7:08 AM 5:48 PM
Waxing Crescent, 19% visible
METAR KCHO 120853Z AUTO 00000KT 10SM CLR M07/M14 A3027 RMK AO2 SLP258 T10721144 56008 TSNO
Pressure 30.30 in
Visibility 10.0 miles
Clouds Clear
Dew Point 6 °F
Humidity 57%
Rainfall 0.00 in
Snow Depth Not available.
7:08 AM 5:48 PM
Waxing Crescent, 19% visible
METAR KCHO 120853Z AUTO 00000KT 10SM CLR M07/M14 A3027 RMK AO2 SLP258 T10721144 56008 TSNO

10-Day Weather Forecast

Almanac

Astronomy

Feb. 12, 2016 Rise Set
Actual Time
Civil Twilight
Nautical Twilight
Astronomical Twilight
Moon
Length of Visible Light
Length of Day
Tomorrow will be .
, % of the Moon is Illuminated

Today's Extremes

State Highs State Lows

Community

WunderPhotos

Upload Photos

1,892,286 photos uploaded!

WunderBlog® & News

Nearby

Air Quality

  Air Quality AQ Index Pollutant
Not available.

Snow Depth

Station Depth Elevation

Earthquake Activity

City Distance Mag. Time & Date
Minimum magnitude displayed is 2.5.

Coastal Water Temperatures

Place Temperature

Stations

Nearby Weather Stations

Station Location Temp. Windchill Dew Point Humidity Wind Precip. Elev Updated Type
                   

Watches & Warnings

There are currently no watches in effect.